Time;durP1;ratioP1;P1;durP2;ratioP2;P2;SDS_P1;SDS_P2;PMS_P1;PMS_P2;Temp;Humidity;BMP_temperature;BMP_pressure;BME280_temperature;BME280_humidity;BME280_pressure;Samples;Min_cycle;Max_cycle;Signal;HPM_P1;HPM_P2
2022/06/12 00:01:34;;;;;;;13.05;2.47;;;13.30;99.90;;;;;;4881632;29;20056;-57
2022/06/12 00:04:02;;;;;;;12.02;2.05;;;13.20;99.90;;;;;;4888860;29;20067;-59
2022/06/12 00:06:29;;;;;;;11.55;2.67;;;13.20;99.90;;;;;;4891862;29;20063;-58
2022/06/12 00:08:57;;;;;;;16.05;3.03;;;13.20;99.90;;;;;;4892693;29;20555;-58
2022/06/12 00:11:27;;;;;;;10.48;2.50;;;13.20;99.90;;;;;;4891449;29;20614;-58
2022/06/12 00:14:00;;;;;;;14.35;3.22;;;13.30;99.90;;;;;;4894325;29;20049;-57
2022/06/12 00:16:31;;;;;;;15.43;2.60;;;13.30;99.90;;;;;;4892615;29;20417;-57
2022/06/12 00:19:01;;;;;;;19.08;2.90;;;13.30;99.90;;;;;;4885969;29;20048;-57
2022/06/12 00:21:31;;;;;;;16.20;3.78;;;13.30;99.90;;;;;;4893218;29;20436;-56
2022/06/12 00:24:07;;;;;;;6.35;2.45;;;13.40;99.90;;;;;;4895651;29;20044;-57
2022/06/12 00:26:36;;;;;;;10.48;2.03;;;13.40;99.90;;;;;;4896667;29;20049;-57
2022/06/12 00:29:11;;;;;;;10.30;2.00;;;13.40;99.90;;;;;;4895581;29;20396;-58
2022/06/12 00:31:48;;;;;;;11.73;2.42;;;13.40;99.90;;;;;;4895613;29;20048;-57
2022/06/12 00:34:18;;;;;;;7.95;2.00;;;13.40;99.90;;;;;;4891169;29;20045;-58
2022/06/12 00:36:46;;;;;;;;;;;13.50;99.90;;;;;;4894552;29;20489;-58
2022/06/12 00:39:16;;;;;;;21.55;3.30;;;13.50;99.90;;;;;;4894452;29;19923;-58
2022/06/12 00:41:46;;;;;;;10.65;3.33;;;13.40;99.90;;;;;;4897604;29;20437;-57
2022/06/12 00:44:21;;;;;;;10.43;2.25;;;13.40;99.90;;;;;;4893593;29;20048;-58
2022/06/12 00:47:04;;;;;;;21.58;4.25;;;13.40;99.90;;;;;;4882743;29;20068;-57
2022/06/12 00:49:44;;;;;;;17.25;2.88;;;13.30;99.90;;;;;;4895556;29;20048;-58
2022/06/12 00:52:14;;;;;;;;;;;13.30;99.90;;;;;;4896991;29;20053;-58
2022/06/12 00:54:44;;;;;;;11.98;2.78;;;13.30;99.90;;;;;;4896075;29;19931;-58
2022/06/12 00:57:13;;;;;;;10.20;2.92;;;13.20;99.90;;;;;;4896245;29;20041;-58
2022/06/12 00:59:59;;;;;;;11.50;2.80;;;13.20;99.90;;;;;;4893981;29;20067;-57
2022/06/12 01:02:31;;;;;;;14.02;2.90;;;13.10;99.90;;;;;;4885469;29;20436;-57
2022/06/12 01:07:52;;;;;;;10.02;2.50;;;13.10;99.90;;;;;;4894308;29;20390;-58
2022/06/12 01:10:23;;;;;;;12.32;2.97;;;13.10;99.90;;;;;;4897027;29;20134;-57
2022/06/12 01:12:54;;;;;;;11.45;2.75;;;13.10;99.90;;;;;;4896032;29;20053;-57
2022/06/12 01:15:28;;;;;;;13.90;3.17;;;13.20;99.90;;;;;;4893411;29;20061;-57
2022/06/12 01:17:58;;;;;;;19.83;3.03;;;13.20;99.90;;;;;;4892976;29;20075;-58
2022/06/12 01:20:31;;;;;;;17.58;2.95;;;13.10;99.90;;;;;;4894740;29;20056;-58
2022/06/12 01:23:18;;;;;;;15.13;2.78;;;13.10;99.90;;;;;;4891733;29;20044;-58
2022/06/12 01:26:35;;;;;;;14.35;3.65;;;13.10;99.90;;;;;;4894374;29;20501;-58
2022/06/12 01:29:33;;;;;;;22.80;3.10;;;13.10;99.90;;;;;;4880505;29;20083;-58
2022/06/12 01:32:12;;;;;;;18.38;3.17;;;13.00;99.90;;;;;;4894208;29;20044;-58
2022/06/12 01:35:05;;;;;;;18.58;3.28;;;13.00;99.90;;;;;;4881410;29;20041;-57
2022/06/12 01:37:40;;;;;;;14.63;3.13;;;13.00;99.90;;;;;;4891326;29;20429;-58
2022/06/12 01:40:21;;;;;;;10.57;3.13;;;13.00;99.90;;;;;;4897576;29;20059;-57
2022/06/12 01:42:59;;;;;;;16.90;3.38;;;13.00;99.90;;;;;;4896791;29;20397;-57
2022/06/12 01:45:39;;;;;;;24.35;3.38;;;13.00;99.90;;;;;;4883782;29;20045;-58
2022/06/12 01:48:20;;;;;;;14.35;3.05;;;13.00;99.90;;;;;;4893252;29;20060;-58
2022/06/12 01:51:00;;;;;;;11.57;2.83;;;13.00;99.90;;;;;;4878027;29;20041;-58
2022/06/12 01:53:49;;;;;;;15.32;2.72;;;13.00;99.90;;;;;;4882535;29;20389;-58
2022/06/12 01:56:41;;;;;;;13.52;2.80;;;13.00;99.90;;;;;;4893262;29;20063;-58
2022/06/12 01:59:31;;;;;;;17.95;3.30;;;13.00;99.90;;;;;;4893457;29;20059;-58
2022/06/12 02:02:09;;;;;;;14.60;3.15;;;13.00;99.90;;;;;;4897697;29;20079;-58
2022/06/12 02:04:42;;;;;;;15.35;3.50;;;13.00;99.90;;;;;;4897273;29;20507;-57
2022/06/12 02:07:24;;;;;;;17.85;3.45;;;13.00;99.90;;;;;;4895889;29;20477;-58
2022/06/12 02:10:02;;;;;;;11.15;3.00;;;13.00;99.90;;;;;;4896593;29;20045;-59
2022/06/12 02:15:27;;;;;;;13.30;2.78;;;13.00;99.90;;;;;;4897520;29;20049;-58
2022/06/12 02:18:07;;;;;;;18.70;3.78;;;13.00;99.90;;;;;;4893774;29;20070;-58
2022/06/12 02:20:40;;;;;;;20.85;3.72;;;13.00;99.90;;;;;;4878680;29;20053;-58
2022/06/12 02:23:15;;;;;;;20.27;3.70;;;13.00;99.90;;;;;;4881449;29;20056;-58
2022/06/12 02:25:46;;;;;;;15.90;3.22;;;13.00;99.90;;;;;;4897156;29;20057;-58
2022/06/12 02:28:18;;;;;;;14.68;3.15;;;13.00;99.90;;;;;;4896026;29;20048;-58
2022/06/12 02:30:55;;;;;;;18.40;3.63;;;13.00;99.90;;;;;;4895469;29;20409;-58
2022/06/12 02:33:26;;;;;;;14.23;2.90;;;13.00;99.90;;;;;;4896226;29;20389;-58
2022/06/12 02:36:00;;;;;;;13.98;3.50;;;13.00;99.90;;;;;;4894529;29;20056;-57
2022/06/12 02:38:45;;;;;;;16.38;2.88;;;13.00;99.90;;;;;;4896030;29;20381;-58
2022/06/12 02:41:22;;;;;;;16.73;4.28;;;13.00;99.90;;;;;;4894727;29;20056;-58
2022/06/12 02:43:54;;;;;;;15.23;3.83;;;13.00;99.90;;;;;;4896864;29;20053;-58
2022/06/12 02:46:33;;;;;;;23.70;3.60;;;13.10;99.90;;;;;;4896449;29;20512;-58
2022/06/12 02:49:01;;;;;;;18.27;3.67;;;13.00;99.90;;;;;;4895859;29;20053;-57
2022/06/12 02:51:53;;;;;;;19.20;4.38;;;13.00;99.90;;;;;;4895409;29;20056;-58
2022/06/12 02:54:48;;;;;;;18.10;4.65;;;13.10;99.90;;;;;;4895863;29;20370;-58
2022/06/12 02:57:38;;;;;;;12.60;3.40;;;13.00;99.90;;;;;;4895036;29;20064;-57
2022/06/12 03:00:12;;;;;;;12.55;3.65;;;13.00;99.90;;;;;;4896280;29;20052;-58
2022/06/12 03:02:53;;;;;;;12.43;4.63;;;13.00;99.90;;;;;;4896892;29;20052;-58
2022/06/12 03:05:31;;;;;;;10.98;2.92;;;13.00;99.90;;;;;;4895861;29;20069;-58
2022/06/12 03:08:03;;;;;;;21.45;4.90;;;13.00;99.90;;;;;;4895480;29;20060;-59
2022/06/12 03:10:34;;;;;;;16.85;4.13;;;12.90;99.90;;;;;;4894754;29;20621;-58
2022/06/12 03:13:05;;;;;;;13.48;3.33;;;12.90;99.90;;;;;;4896828;29;20048;-57
2022/06/12 03:15:40;;;;;;;10.85;3.55;;;12.90;99.90;;;;;;4896760;29;20045;-58
2022/06/12 03:18:12;;;;;;;15.10;3.75;;;12.80;99.90;;;;;;4895550;29;20071;-58
2022/06/12 03:20:48;;;;;;;18.73;3.15;;;12.80;99.90;;;;;;4896307;29;20052;-58
2022/06/12 03:23:35;;;;;;;11.48;3.15;;;12.80;99.90;;;;;;4892713;29;20425;-58
2022/06/12 03:26:08;;;;;;;18.95;4.55;;;12.70;99.90;;;;;;4894990;29;20053;-58
2022/06/12 03:28:55;;;;;;;15.52;3.10;;;12.70;99.90;;;;;;4894195;29;20048;-58
2022/06/12 03:31:45;;;;;;;14.35;2.72;;;12.60;99.90;;;;;;4895183;29;20048;-58
2022/06/12 03:34:30;;;;;;;13.77;3.85;;;12.70;99.90;;;;;;4891426;29;20401;-58
2022/06/12 03:37:05;;;;;;;23.05;4.25;;;12.60;99.90;;;;;;4896381;29;20045;-58
2022/06/12 03:39:51;;;;;;;21.13;4.03;;;12.70;99.90;;;;;;4896425;29;20052;-58
2022/06/12 03:42:32;;;;;;;21.52;3.88;;;12.70;99.90;;;;;;4894227;29;20489;-58
2022/06/12 03:45:22;;;;;;;8.98;3.28;;;12.70;99.90;;;;;;4892413;29;20045;-58
2022/06/12 03:47:56;;;;;;;18.08;3.67;;;12.60;99.90;;;;;;4878015;29;20057;-58
2022/06/12 03:50:51;;;;;;;22.23;3.80;;;12.60;99.90;;;;;;4877232;29;20060;-59
2022/06/12 03:53:47;;;;;;;20.98;3.88;;;12.50;99.90;;;;;;4877487;29;20049;-58
2022/06/12 03:59:10;;;;;;;19.38;3.70;;;12.40;99.90;;;;;;4881211;29;20060;-58
2022/06/12 04:01:40;;;;;;;12.63;3.55;;;12.40;99.90;;;;;;4881091;29;20049;-58
2022/06/12 04:04:08;;;;;;;12.00;3.33;;;12.30;99.90;;;;;;4895409;29;20048;-58
2022/06/12 04:06:37;;;;;;;25.73;4.22;;;12.30;99.90;;;;;;4898970;29;20516;-57
2022/06/12 04:09:13;;;;;;;14.90;3.67;;;12.30;99.90;;;;;;4899841;29;20056;-58
2022/06/12 04:11:42;;;;;;;23.67;3.60;;;12.30;99.90;;;;;;4899689;29;20079;-58
2022/06/12 04:14:15;;;;;;;13.32;3.38;;;12.20;99.90;;;;;;4899459;29;20044;-57
2022/06/12 04:16:49;;;;;;;19.20;4.40;;;12.30;99.90;;;;;;4898394;29;20636;-56
2022/06/12 04:19:23;;;;;;;20.13;4.60;;;12.20;99.90;;;;;;4896875;29;20401;-57
2022/06/12 04:22:00;;;;;;;15.75;3.90;;;12.20;99.90;;;;;;4898556;29;20049;-56
2022/06/12 04:24:52;;;;;;;17.00;3.47;;;12.20;99.90;;;;;;4897495;29;20052;-56
2022/06/12 04:27:46;;;;;;;12.77;3.58;;;12.20;99.90;;;;;;4896571;29;20060;-55
2022/06/12 04:30:22;;;;;;;18.25;4.25;;;12.10;99.90;;;;;;4885896;29;20048;-58
2022/06/12 04:32:59;;;;;;;21.73;3.75;;;12.10;99.90;;;;;;4897516;29;20049;-58
2022/06/12 04:35:27;;;;;;;16.58;3.15;;;12.10;99.90;;;;;;4896653;29;20048;-58
2022/06/12 04:37:54;;;;;;;21.80;3.75;;;12.10;99.90;;;;;;4899205;29;20075;-58
2022/06/12 04:40:27;;;;;;;13.95;3.72;;;12.10;99.90;;;;;;4899377;29;20582;-58
2022/06/12 04:42:54;;;;;;;12.05;3.13;;;12.10;99.90;;;;;;4899166;29;20530;-58
2022/06/12 04:45:22;;;;;;;17.33;4.05;;;12.10;99.90;;;;;;4899216;29;20056;-58
2022/06/12 04:47:50;;;;;;;21.70;3.97;;;12.20;99.90;;;;;;4893690;29;20053;-57
2022/06/12 04:50:18;;;;;;;13.90;3.85;;;12.20;99.90;;;;;;4892476;29;20063;-57
2022/06/12 04:52:46;;;;;;;17.80;3.97;;;12.30;99.90;;;;;;4893581;29;20405;-56
2022/06/12 04:55:13;;;;;;;15.30;3.42;;;12.40;99.90;;;;;;4896113;29;20049;-58
2022/06/12 04:57:41;;;;;;;15.55;3.97;;;12.40;99.90;;;;;;4890450;29;20559;-57
2022/06/12 05:00:10;;;;;;;17.67;4.00;;;12.40;99.90;;;;;;4868137;29;20079;-57
2022/06/12 05:02:38;;;;;;;18.40;3.40;;;12.50;99.90;;;;;;4881404;29;20052;-56
2022/06/12 05:05:06;;;;;;;10.60;2.67;;;12.50;99.90;;;;;;4893116;29;20496;-56
2022/06/12 05:07:34;;;;;;;15.98;2.90;;;12.60;99.90;;;;;;4890607;29;20254;-58
2022/06/12 05:10:02;;;;;;;20.08;2.92;;;12.60;99.90;;;;;;4890073;29;20049;-57
2022/06/12 05:12:30;;;;;;;8.30;2.20;;;12.60;99.90;;;;;;4893519;29;20060;-57
2022/06/12 05:14:58;;;;;;;11.02;3.22;;;12.70;99.90;;;;;;4883007;29;20052;-58
2022/06/12 05:17:27;;;;;;;11.13;3.30;;;12.70;99.90;;;;;;4875293;29;20063;-57
2022/06/12 05:19:55;;;;;;;20.00;3.50;;;12.70;99.90;;;;;;4878819;29;20509;-57
2022/06/12 05:22:25;;;;;;;14.43;3.28;;;12.70;99.90;;;;;;4892744;29;20060;-57
2022/06/12 05:24:53;;;;;;;13.48;2.53;;;12.80;99.90;;;;;;4895676;29;20045;-57
2022/06/12 05:27:22;;;;;;;14.35;2.38;;;12.80;99.90;;;;;;4895487;29;20053;-57
2022/06/12 05:29:51;;;;;;;14.32;4.00;;;12.80;99.90;;;;;;4895530;29;20048;-56
2022/06/12 05:32:22;;;;;;;11.60;3.08;;;12.90;99.90;;;;;;4892054;29;20056;-58
2022/06/12 05:34:50;;;;;;;10.05;2.33;;;12.90;99.90;;;;;;4891553;29;20056;-57
2022/06/12 05:37:19;;;;;;;12.50;3.22;;;13.00;99.90;;;;;;4892063;29;20045;-57
2022/06/12 05:39:46;;;;;;;9.80;2.72;;;13.00;99.90;;;;;;4892391;29;20052;-58
2022/06/12 05:42:14;;;;;;;12.00;2.72;;;13.00;99.90;;;;;;4893660;29;20527;-57
2022/06/12 05:44:43;;;;;;;9.15;2.65;;;13.00;99.90;;;;;;4895672;29;20041;-58
2022/06/12 05:47:11;;;;;;;12.75;2.55;;;13.00;99.90;;;;;;4893796;29;20055;-57
2022/06/12 05:49:39;;;;;;;10.77;2.40;;;13.00;99.90;;;;;;4891473;29;20060;-58
2022/06/12 05:52:07;;;;;;;17.90;2.47;;;13.00;99.90;;;;;;4892733;29;20060;-58
2022/06/12 05:54:34;;;;;;;14.73;2.83;;;13.00;99.90;;;;;;4890836;29;20394;-58
2022/06/12 05:57:02;;;;;;;24.20;3.28;;;13.10;99.90;;;;;;4890648;29;20052;-58
2022/06/12 05:59:30;;;;;;;15.98;3.33;;;13.20;99.90;;;;;;4892179;29;20071;-58
2022/06/12 06:01:58;;;;;;;12.38;3.20;;;13.20;99.90;;;;;;4893267;29;20072;-57
2022/06/12 06:04:26;;;;;;;18.17;3.55;;;13.30;99.90;;;;;;4879551;29;20060;-58
2022/06/12 06:07:00;;;;;;;10.30;3.65;;;13.40;99.90;;;;;;4894158;29;20049;-57
2022/06/12 06:09:28;;;;;;;11.45;2.15;;;13.40;99.90;;;;;;4862724;29;20683;-58
2022/06/12 06:11:56;;;;;;;10.80;2.55;;;13.50;99.90;;;;;;4883780;29;20048;-57
2022/06/12 06:14:24;;;;;;;17.25;2.78;;;13.50;99.90;;;;;;4895579;29;20060;-57
2022/06/12 06:16:52;;;;;;;9.88;2.53;;;13.60;99.90;;;;;;4892153;29;20413;-58
2022/06/12 06:19:20;;;;;;;9.35;2.90;;;13.80;99.90;;;;;;4886972;29;20067;-58
2022/06/12 06:21:48;;;;;;;11.90;2.22;;;13.90;99.90;;;;;;4892711;29;20405;-58
2022/06/12 06:24:15;;;;;;;11.77;2.90;;;14.00;99.90;;;;;;4892608;29;20044;-57
2022/06/12 06:26:43;;;;;;;15.27;2.80;;;14.20;99.90;;;;;;4894397;29;20047;-57
2022/06/12 06:29:12;;;;;;;10.75;2.35;;;14.30;99.90;;;;;;4893859;29;20505;-57
2022/06/12 06:31:40;;;;;;;12.07;2.40;;;14.40;99.90;;;;;;4894528;29;20059;-57
2022/06/12 06:34:08;;;;;;;12.23;2.33;;;14.50;99.90;;;;;;4891381;29;20053;-57
2022/06/12 06:36:36;;;;;;;12.65;3.25;;;14.50;99.90;;;;;;4894513;29;20053;-57
2022/06/12 06:39:04;;;;;;;10.10;2.20;;;14.60;99.90;;;;;;4895383;29;20064;-57
2022/06/12 06:41:31;;;;;;;11.20;2.63;;;14.50;99.90;;;;;;4892826;29;20052;-58
2022/06/12 06:46:45;;;;;;;23.80;4.05;;;14.40;99.90;;;;;;4895477;29;20413;-57
2022/06/12 06:49:20;;;;;;;7.13;2.03;;;14.40;99.90;;;;;;4889904;29;20044;-57
2022/06/12 06:51:49;;;;;;;8.03;2.50;;;14.40;99.90;;;;;;4892317;29;20068;-56
2022/06/12 06:54:18;;;;;;;9.70;2.88;;;14.40;99.90;;;;;;4889300;29;20063;-57
2022/06/12 06:56:46;;;;;;;11.63;1.98;;;14.40;99.90;;;;;;4879029;29;20045;-57
2022/06/12 06:59:14;;;;;;;13.27;2.72;;;14.50;99.90;;;;;;4889795;29;20048;-57
2022/06/12 07:01:42;;;;;;;14.30;1.85;;;14.50;99.90;;;;;;4892168;29;20517;-58
2022/06/12 07:04:10;;;;;;;12.27;2.05;;;14.60;99.90;;;;;;4888920;29;20060;-57
2022/06/12 07:06:39;;;;;;;14.68;2.25;;;14.60;99.90;;;;;;4891118;29;20381;-58
2022/06/12 07:09:07;;;;;;;20.77;3.47;;;14.70;99.90;;;;;;4891142;29;20504;-58
2022/06/12 07:11:35;;;;;;;15.70;2.28;;;14.70;99.90;;;;;;4890358;29;20048;-58
2022/06/12 07:14:03;;;;;;;14.60;2.80;;;14.80;99.90;;;;;;4885270;29;20040;-58
2022/06/12 07:16:32;;;;;;;16.55;2.10;;;14.90;99.90;;;;;;4891939;29;20052;-58
2022/06/12 07:19:00;;;;;;;11.48;2.40;;;15.00;99.90;;;;;;4888220;29;20049;-58
2022/06/12 07:21:28;;;;;;;11.00;2.28;;;15.00;99.90;;;;;;4892003;29;20657;-58
2022/06/12 07:23:58;;;;;;;16.45;2.10;;;15.00;99.90;;;;;;4893328;29;20055;-58
2022/06/12 07:26:34;;;;;;;;;;;15.10;99.90;;;;;;4885333;29;20065;-58
2022/06/12 07:29:03;;;;;;;12.52;2.47;;;15.20;99.90;;;;;;4888511;29;20375;-57
2022/06/12 07:31:32;;;;;;;11.90;2.08;;;15.30;99.90;;;;;;4893758;29;20527;-58
2022/06/12 07:33:59;;;;;;;9.90;2.00;;;15.30;99.90;;;;;;4894492;29;20059;-58
2022/06/12 07:36:33;;;;;;;16.42;2.60;;;15.20;99.90;;;;;;4893661;29;20498;-57
2022/06/12 07:39:02;;;;;;;10.30;2.20;;;15.20;99.90;;;;;;4894407;29;20409;-57
2022/06/12 07:41:48;;;;;;;17.98;2.65;;;15.10;99.90;;;;;;4894633;29;20045;-57
2022/06/12 07:44:20;;;;;;;9.10;2.47;;;15.10;99.90;;;;;;4900830;29;20053;-56
2022/06/12 07:46:50;;;;;;;12.77;2.25;;;15.10;99.90;;;;;;4897001;29;20063;-58
2022/06/12 07:49:19;;;;;;;;;;;15.00;99.90;;;;;;4890921;29;20577;-57
2022/06/12 07:51:48;;;;;;;13.13;2.30;;;15.10;99.90;;;;;;4895130;29;19923;-57
2022/06/12 07:54:17;;;;;;;15.65;2.40;;;15.10;99.90;;;;;;4894140;29;20425;-58
2022/06/12 07:56:45;;;;;;;10.07;1.92;;;15.10;99.90;;;;;;4898697;29;20048;-57
2022/06/12 07:59:14;;;;;;;17.55;3.00;;;15.20;99.90;;;;;;4894305;29;20044;-57
2022/06/12 08:01:42;;;;;;;12.73;2.35;;;15.20;99.90;;;;;;4891046;29;20053;-57
2022/06/12 08:04:11;;;;;;;10.50;1.98;;;15.20;99.90;;;;;;4893769;29;20071;-57
2022/06/12 08:06:39;;;;;;;20.58;2.90;;;15.20;99.90;;;;;;4892141;29;20041;-57
2022/06/12 08:09:10;;;;;;;6.43;1.73;;;15.20;99.90;;;;;;4899439;29;20052;-57
2022/06/12 08:11:40;;;;;;;11.57;2.10;;;15.20;99.90;;;;;;4899245;29;20509;-58
2022/06/12 08:14:08;;;;;;;8.25;2.65;;;15.20;99.90;;;;;;4899508;29;20057;-57
2022/06/12 08:16:39;;;;;;;11.68;3.08;;;15.20;99.90;;;;;;4898507;29;20044;-56
2022/06/12 08:20:24;;;;;;;15.35;2.08;;;15.30;99.90;;;;;;4891406;29;20217;-57
2022/06/12 08:21:59;;;;;;;7.57;1.65;;;15.30;99.90;;;;;;4885350;29;20045;-57
2022/06/12 08:24:27;;;;;;;12.13;2.50;;;15.40;99.90;;;;;;4899197;29;20052;-58
2022/06/12 08:26:55;;;;;;;16.38;2.55;;;15.40;99.90;;;;;;4894748;29;20068;-58
2022/06/12 08:29:24;;;;;;;4.93;1.50;;;15.40;99.90;;;;;;4898546;29;20063;-58
2022/06/12 08:31:56;;;;;;;18.75;2.20;;;15.50;99.90;;;;;;4898194;29;20425;-58
2022/06/12 08:34:48;;;;;;;11.82;2.58;;;15.50;99.90;;;;;;4893510;29;20049;-59
2022/06/12 08:37:20;;;;;;;8.48;2.60;;;15.50;99.90;;;;;;4893151;29;20409;-57
2022/06/12 08:39:48;;;;;;;11.77;2.00;;;15.50;99.90;;;;;;4894913;29;20079;-57
2022/06/12 08:42:30;;;;;;;14.77;2.58;;;15.50;99.90;;;;;;4899412;29;20045;-57
2022/06/12 08:45:18;;;;;;;13.05;1.92;;;15.50;99.90;;;;;;4895087;29;20059;-58
2022/06/12 08:48:01;;;;;;;12.73;1.88;;;15.60;99.90;;;;;;4893877;29;20138;-57
2022/06/12 08:50:41;;;;;;;10.32;2.22;;;15.60;99.90;;;;;;4881712;29;20041;-58
2022/06/12 08:53:34;;;;;;;14.63;2.00;;;15.60;99.90;;;;;;4883850;29;20049;-58
2022/06/12 08:56:11;;;;;;;10.93;2.20;;;15.70;99.90;;;;;;4896252;29;20371;-57
2022/06/12 08:58:52;;;;;;;12.20;1.85;;;15.80;99.90;;;;;;4896371;29;20064;-58
2022/06/12 09:01:19;;;;;;;;;;;15.90;99.90;;;;;;4896342;29;20053;-58
2022/06/12 09:03:51;;;;;;;11.75;1.80;;;15.90;99.90;;;;;;4879196;29;19923;-59
2022/06/12 09:06:40;;;;;;;6.13;1.90;;;15.90;99.90;;;;;;4878585;29;20049;-58
2022/06/12 09:09:37;;;;;;;8.57;2.07;;;15.90;99.90;;;;;;4893968;29;20057;-58
2022/06/12 09:12:23;;;;;;;10.15;1.70;;;16.00;99.90;;;;;;4893951;29;20060;-58
2022/06/12 09:15:15;;;;;;;6.85;1.40;;;16.10;99.90;;;;;;4896778;29;20063;-58
2022/06/12 09:18:18;;;;;;;9.00;2.00;;;16.20;99.90;;;;;;4895706;29;20056;-58
2022/06/12 09:21:01;;;;;;;12.20;2.28;;;16.20;99.90;;;;;;4892802;29;20425;-57
2022/06/12 09:23:36;;;;;;;10.48;2.60;;;16.10;99.90;;;;;;4891734;29;20044;-58
2022/06/12 09:26:21;;;;;;;8.73;1.70;;;16.00;99.90;;;;;;4893558;29;20138;-58
2022/06/12 09:29:04;;;;;;;13.07;2.35;;;16.00;99.90;;;;;;4890405;29;20064;-57
2022/06/12 09:31:38;;;;;;;14.00;2.60;;;16.10;99.90;;;;;;4885984;29;20493;-58
2022/06/12 09:34:25;;;;;;;9.32;1.60;;;16.20;99.90;;;;;;4890188;29;20048;-57
2022/06/12 09:40:20;;;;;;;8.27;1.60;;;16.50;99.90;;;;;;4889843;29;20052;-58
2022/06/12 09:42:57;;;;;;;8.68;1.75;;;16.50;99.90;;;;;;4888105;29;20044;-58
2022/06/12 09:45:56;;;;;;;6.55;1.80;;;16.50;99.90;;;;;;4890343;29;20060;-57
2022/06/12 09:48:56;;;;;;;8.07;2.08;;;16.60;99.60;;;;;;4888307;29;20040;-58
2022/06/12 09:51:36;;;;;;;8.00;1.52;;;16.70;98.70;;;;;;4861202;29;20049;-58
2022/06/12 09:54:05;;;;;;;6.38;1.77;;;16.80;98.40;;;;;;4879438;29;20036;-56
2022/06/12 09:56:47;;;;;;;7.55;1.70;;;16.90;98.90;;;;;;4892873;29;20409;-57
2022/06/12 09:59:30;;;;;;;11.00;1.98;;;17.10;98.00;;;;;;4888615;29;20080;-57
2022/06/12 10:02:04;;;;;;;5.70;1.63;;;17.30;97.80;;;;;;4889472;29;20063;-58
2022/06/12 10:04:51;;;;;;;9.45;1.25;;;17.40;96.10;;;;;;4890146;29;20052;-58
2022/06/12 10:07:38;;;;;;;7.82;1.65;;;17.50;96.60;;;;;;4891782;29;20524;-57
2022/06/12 10:10:13;;;;;;;6.05;1.65;;;17.50;96.60;;;;;;4889077;29;20382;-57
2022/06/12 10:12:44;;;;;;;4.57;1.42;;;17.60;96.20;;;;;;4890824;29;20059;-58
2022/06/12 10:15:20;;;;;;;10.30;1.50;;;17.70;95.60;;;;;;4889288;29;20052;-57
2022/06/12 10:18:06;;;;;;;8.38;1.60;;;17.80;95.20;;;;;;4890352;29;20052;-59
2022/06/12 10:20:44;;;;;;;6.25;1.70;;;17.80;95.20;;;;;;4879808;29;20953;-58
2022/06/12 10:23:12;;;;;;;6.93;1.20;;;17.80;95.00;;;;;;4887766;29;20079;-59
2022/06/12 10:25:49;;;;;;;8.98;1.40;;;17.90;94.40;;;;;;4890195;29;20057;-58
2022/06/12 10:28:23;;;;;;;5.20;1.02;;;18.10;93.50;;;;;;4889020;29;20048;-59
2022/06/12 10:31:19;;;;;;;11.45;2.00;;;18.20;93.50;;;;;;4891387;29;20078;-58
2022/06/12 10:33:56;;;;;;;4.85;1.05;;;18.40;91.90;;;;;;4888034;29;20425;-59
2022/06/12 10:36:34;;;;;;;7.50;1.10;;;18.40;91.10;;;;;;4877366;29;20052;-59
2022/06/12 10:39:23;;;;;;;4.22;1.25;;;18.40;90.40;;;;;;4885857;29;20348;-58
2022/06/12 10:42:01;;;;;;;11.83;2.20;;;18.50;90.00;;;;;;4889180;29;20496;-59
2022/06/12 10:44:34;;;;;;;5.00;1.02;;;18.50;90.10;;;;;;4878733;29;20068;-58
2022/06/12 10:47:18;;;;;;;5.90;0.95;;;18.70;89.40;;;;;;4873979;29;20059;-59
2022/06/12 10:49:48;;;;;;;7.60;1.60;;;18.90;87.90;;;;;;4887223;29;20053;-58
2022/06/12 10:52:18;;;;;;;10.90;1.58;;;19.00;88.60;;;;;;4877162;29;20504;-58
2022/06/12 10:54:47;;;;;;;;;;;19.00;87.90;;;;;;4886739;29;20065;-58
2022/06/12 10:57:51;;;;;;;8.43;2.28;;;19.00;86.70;;;;;;4878333;29;20244;-58
2022/06/12 11:00:23;;;;;;;9.07;1.25;;;18.90;86.50;;;;;;4885451;29;20044;-58
2022/06/12 11:03:17;;;;;;;5.45;1.10;;;18.70;87.00;;;;;;4884319;29;20055;-60
2022/06/12 11:05:55;;;;;;;7.90;1.40;;;18.70;87.20;;;;;;4877924;29;20045;-59
2022/06/12 11:08:35;;;;;;;4.40;1.00;;;18.90;87.50;;;;;;4883097;29;20405;-59
2022/06/12 11:11:09;;;;;;;4.22;1.05;;;19.10;84.60;;;;;;4880718;29;20501;-58
2022/06/12 11:13:46;;;;;;;11.43;2.05;;;19.20;82.50;;;;;;4872411;29;20048;-58
2022/06/12 11:16:32;;;;;;;5.20;1.52;;;19.20;84.60;;;;;;4877425;29;20056;-59
2022/06/12 11:19:15;;;;;;;5.57;1.20;;;19.40;86.30;;;;;;4877525;29;20041;-59
2022/06/12 11:21:45;;;;;;;2.55;1.20;;;19.70;84.20;;;;;;4879163;29;20064;-58
2022/06/12 11:24:24;;;;;;;10.70;1.27;;;19.90;82.40;;;;;;4884113;29;20056;-60
2022/06/12 11:27:08;;;;;;;9.63;1.25;;;19.90;79.70;;;;;;4882654;29;20057;-59
2022/06/12 11:29:59;;;;;;;5.32;1.17;;;19.70;79.00;;;;;;4879854;29;20045;-59
2022/06/12 11:32:45;;;;;;;;;;;19.50;79.50;;;;;;4874820;29;20061;-59
2022/06/12 11:35:23;;;;;;;7.82;1.20;;;19.40;81.00;;;;;;4882315;29;19939;-59
2022/06/12 11:38:12;;;;;;;7.50;1.52;;;19.50;80.50;;;;;;4881367;29;20064;-59
2022/06/12 11:41:01;;;;;;;11.30;1.95;;;19.60;79.90;;;;;;4875361;29;20056;-57
2022/06/12 11:43:35;;;;;;;5.95;1.02;;;19.60;81.70;;;;;;4886579;29;20045;-58
2022/06/12 11:46:23;;;;;;;5.20;1.83;;;19.90;78.30;;;;;;4886360;29;20056;-58
2022/06/12 11:49:08;;;;;;;10.60;1.48;;;19.70;78.50;;;;;;4881074;29;20748;-58
2022/06/12 11:51:57;;;;;;;11.50;1.52;;;19.60;78.00;;;;;;4879638;29;20389;-58
2022/06/12 11:54:49;;;;;;;8.88;1.63;;;19.50;79.50;;;;;;4882556;29;20076;-58
2022/06/12 11:57:25;;;;;;;7.10;1.55;;;19.60;80.60;;;;;;4887467;29;20498;-57
2022/06/12 12:00:08;;;;;;;7.97;1.60;;;19.70;80.20;;;;;;4877412;29;20049;-57
2022/06/12 12:03:05;;;;;;;4.90;1.70;;;19.90;81.20;;;;;;4886943;29;20048;-58
2022/06/12 12:05:45;;;;;;;8.85;1.40;;;20.40;77.70;;;;;;4880709;29;20049;-57
2022/06/12 12:08:30;;;;;;;5.30;1.38;;;20.70;77.70;;;;;;4882071;29;20056;-58
2022/06/12 12:11:09;;;;;;;6.93;1.48;;;20.90;75.60;;;;;;4884441;29;20644;-57
2022/06/12 12:13:44;;;;;;;7.43;1.63;;;21.00;74.90;;;;;;4870953;29;20397;-58
2022/06/12 12:16:30;;;;;;;8.02;1.63;;;21.00;73.50;;;;;;4879510;29;20053;-58
2022/06/12 12:19:06;;;;;;;5.22;1.40;;;20.90;74.10;;;;;;4892164;29;20401;-58
2022/06/12 12:21:42;;;;;;;4.93;1.38;;;21.00;73.70;;;;;;4881407;29;20505;-57
2022/06/12 12:24:19;;;;;;;7.07;1.08;;;20.90;73.50;;;;;;4889859;29;20044;-58
2022/06/12 12:26:48;;;;;;;7.38;2.13;;;20.70;72.10;;;;;;4887364;29;19928;-58
2022/06/12 12:29:22;;;;;;;11.10;2.15;;;20.40;73.10;;;;;;4884893;29;20052;-57
2022/06/12 12:31:51;;;;;;;9.07;1.20;;;20.30;74.20;;;;;;4894197;29;20540;-57
2022/06/12 12:34:22;;;;;;;9.30;1.50;;;20.30;75.60;;;;;;4892035;29;20536;-57
2022/06/12 12:42:35;;;;;;;7.30;1.10;;;20.10;75.00;;;;;;4881608;29;20056;-58
2022/06/12 12:45:24;;;;;;;5.57;1.30;;;19.90;74.30;;;;;;4887050;29;20053;-57
2022/06/12 12:48:04;;;;;;;6.38;1.50;;;19.50;74.80;;;;;;4887084;29;20048;-57
2022/06/12 12:51:01;;;;;;;8.73;1.45;;;19.30;75.90;;;;;;4892280;29;20040;-57
2022/06/12 12:53:32;;;;;;;8.68;1.88;;;19.00;77.40;;;;;;4881039;29;20056;-57
2022/06/12 12:56:12;;;;;;;5.95;1.23;;;18.90;77.80;;;;;;4893076;29;20258;-58
2022/06/12 12:58:54;;;;;;;8.20;1.20;;;18.90;78.60;;;;;;4892187;29;20049;-57
2022/06/12 13:01:25;;;;;;;6.88;1.30;;;18.90;77.60;;;;;;4882835;29;20056;-57
2022/06/12 13:03:57;;;;;;;7.05;1.20;;;18.90;77.80;;;;;;4893685;29;20056;-57
2022/06/12 13:06:43;;;;;;;4.75;1.00;;;18.90;77.40;;;;;;4892770;29;20048;-58
2022/06/12 13:09:30;;;;;;;9.85;2.25;;;19.10;77.90;;;;;;4889920;29;20048;-57
2022/06/12 13:12:16;;;;;;;6.32;1.05;;;19.40;76.10;;;;;;4885993;29;20722;-57
2022/06/12 13:15:02;;;;;;;3.08;1.02;;;19.60;77.30;;;;;;4889020;29;20061;-56
2022/06/12 13:17:34;;;;;;;8.48;1.10;;;19.90;76.70;;;;;;4890005;29;20045;-57
2022/06/12 13:20:02;;;;;;;4.65;1.25;;;20.20;75.40;;;;;;4884677;29;20044;-57
2022/06/12 13:22:56;;;;;;;5.35;1.30;;;20.40;75.90;;;;;;4880169;29;20056;-57
2022/06/12 13:25:40;;;;;;;8.75;0.82;;;20.50;72.80;;;;;;4880846;29;20056;-60
2022/06/12 13:28:26;;;;;;;5.97;1.13;;;20.50;72.80;;;;;;4878291;29;20052;-58
2022/06/12 13:30:55;;;;;;;7.70;1.00;;;20.40;72.30;;;;;;4888928;29;20049;-59
2022/06/12 13:33:30;;;;;;;8.30;1.40;;;20.20;72.50;;;;;;4889363;29;20045;-58
2022/06/12 13:35:58;;;;;;;3.72;1.23;;;20.20;72.40;;;;;;4876937;29;20512;-59
2022/06/12 13:38:27;;;;;;;5.00;1.08;;;20.00;72.50;;;;;;4889879;29;20055;-59
2022/06/12 13:41:05;;;;;;;11.75;1.75;;;19.90;72.90;;;;;;4880554;29;20049;-59
2022/06/12 13:43:35;;;;;;;6.93;1.10;;;19.60;73.80;;;;;;4879281;29;20053;-59
2022/06/12 13:46:25;;;;;;;8.10;1.25;;;19.60;76.40;;;;;;4888845;29;20052;-59
2022/06/12 13:48:55;;;;;;;10.50;2.30;;;19.80;76.20;;;;;;4883121;29;20060;-59